createdAt,value
2023-08-28T00:01:34.132Z,99193.50
2023-08-28T00:04:00.728Z,99194.38
2023-08-28T00:06:27.384Z,99187.41
2023-08-28T00:08:53.921Z,99182.56
2023-08-28T00:11:20.598Z,99161.34
2023-08-28T00:13:47.314Z,99148.72
2023-08-28T00:16:13.894Z,99150.41
2023-08-28T00:18:40.616Z,99137.38
2023-08-28T00:21:07.630Z,99137.09
2023-08-28T00:23:34.370Z,99142.47
2023-08-28T00:26:01.352Z,99146.66
2023-08-28T00:28:28.136Z,99141.09
2023-08-28T00:30:54.875Z,99143.63
2023-08-28T00:33:21.410Z,99158.38
2023-08-28T00:35:48.165Z,99161.47
2023-08-28T00:38:14.718Z,99162.50
2023-08-28T00:40:41.628Z,99172.06
2023-08-28T00:43:09.680Z,99176.03
2023-08-28T00:45:41.327Z,99192.75
2023-08-28T00:48:08.230Z,99180.16
2023-08-28T00:50:35.074Z,99163.16
2023-08-28T00:53:02.574Z,99172.91
2023-08-28T00:55:33.037Z,99171.38
2023-08-28T00:57:59.721Z,99185.22
2023-08-28T01:00:26.306Z,99194.84
2023-08-28T01:02:53.025Z,99194.81
2023-08-28T01:05:20.244Z,99190.69
2023-08-28T01:08:03.996Z,99182.47
2023-08-28T01:10:40.482Z,99173.47
2023-08-28T01:13:19.770Z,99179.94
2023-08-28T01:15:46.505Z,99178.00
2023-08-28T01:18:13.697Z,99183.06
2023-08-28T01:20:41.199Z,99176.41
2023-08-28T01:23:22.766Z,99184.88
2023-08-28T01:25:49.581Z,99172.75
2023-08-28T01:28:16.374Z,99181.59
2023-08-28T01:30:43.124Z,99175.25
2023-08-28T01:33:09.762Z,99177.97
2023-08-28T01:35:36.473Z,99178.69
2023-08-28T01:38:15.257Z,99179.41
2023-08-28T01:40:48.129Z,99189.13
2023-08-28T01:43:18.572Z,99190.00
2023-08-28T01:45:45.179Z,99186.94
2023-08-28T01:48:12.043Z,99186.72
2023-08-28T01:50:38.747Z,99184.09
2023-08-28T01:53:05.277Z,99188.09
2023-08-28T01:55:47.225Z,99192.44
2023-08-28T01:58:13.937Z,99194.31
2023-08-28T02:00:40.750Z,99203.09
2023-08-28T02:03:09.088Z,99206.34
2023-08-28T02:05:35.655Z,99213.66
2023-08-28T02:08:02.209Z,99208.75
2023-08-28T02:10:28.829Z,99216.00
2023-08-28T02:12:55.434Z,99222.63
2023-08-28T02:15:21.993Z,99217.34
2023-08-28T02:17:48.624Z,99222.28
2023-08-28T02:20:15.293Z,99225.03
2023-08-28T02:22:41.841Z,99228.09
2023-08-28T02:25:08.857Z,99256.78
2023-08-28T02:27:35.445Z,99231.38
2023-08-28T02:30:02.246Z,99229.03
2023-08-28T02:32:29.558Z,99223.41
2023-08-28T02:34:56.158Z,99223.72
2023-08-28T02:37:22.809Z,99221.00
2023-08-28T02:39:49.400Z,99217.53
2023-08-28T02:42:15.948Z,99216.09
2023-08-28T02:44:42.488Z,99208.72
2023-08-28T02:47:09.090Z,99215.59
2023-08-28T02:49:35.670Z,99203.63
2023-08-28T02:52:02.210Z,99209.03
2023-08-28T02:54:28.817Z,99202.19
2023-08-28T02:56:55.349Z,99200.50
2023-08-28T02:59:21.936Z,99188.75
2023-08-28T03:01:48.653Z,99188.91
2023-08-28T03:04:15.537Z,99180.94
2023-08-28T03:06:42.111Z,99185.94
2023-08-28T03:09:09.152Z,99181.47
2023-08-28T03:11:36.404Z,99177.44
2023-08-28T03:14:04.159Z,99190.38
2023-08-28T03:16:31.009Z,99176.22
2023-08-28T03:18:57.578Z,99174.38
2023-08-28T03:21:24.224Z,99177.75
2023-08-28T03:23:51.178Z,99180.13
2023-08-28T03:26:17.963Z,99168.34
2023-08-28T03:28:44.510Z,99155.72
2023-08-28T03:31:11.141Z,99145.06
2023-08-28T03:33:37.840Z,99138.25
2023-08-28T03:36:06.191Z,99133.81
2023-08-28T03:38:32.804Z,99132.91
2023-08-28T03:40:59.377Z,99116.69
2023-08-28T03:43:25.940Z,99120.63
2023-08-28T03:45:52.580Z,99108.91
2023-08-28T03:48:19.293Z,99113.25
2023-08-28T03:50:46.933Z,99113.69
2023-08-28T03:53:13.606Z,99104.69
2023-08-28T03:55:40.149Z,99104.47
2023-08-28T03:58:06.805Z,99105.28
2023-08-28T04:00:34.144Z,99103.38
2023-08-28T04:03:00.828Z,99107.81
2023-08-28T04:05:30.446Z,99107.25
2023-08-28T04:07:57.264Z,99110.56
2023-08-28T04:10:23.934Z,99105.00
2023-08-28T04:12:50.496Z,99109.38
2023-08-28T04:15:17.205Z,99115.59
2023-08-28T04:17:44.326Z,99103.97
2023-08-28T04:20:14.188Z,99110.88
2023-08-28T04:22:44.964Z,99117.13
2023-08-28T04:25:12.372Z,99106.75
2023-08-28T04:27:40.294Z,99107.22
2023-08-28T04:30:09.080Z,99107.69
2023-08-28T04:32:35.946Z,99103.34
2023-08-28T04:35:03.411Z,99090.16
2023-08-28T04:37:30.181Z,99091.34
2023-08-28T04:39:57.041Z,99088.34
2023-08-28T04:42:23.589Z,99096.41
2023-08-28T04:44:50.274Z,99093.94
2023-08-28T04:47:16.976Z,99095.00
2023-08-28T04:49:43.604Z,99099.53
2023-08-28T04:52:10.328Z,99098.63
2023-08-28T04:54:37.515Z,99088.56
2023-08-28T04:57:04.713Z,99079.25
2023-08-28T04:59:31.519Z,99079.94
2023-08-28T05:01:58.263Z,99079.97
2023-08-28T05:04:24.963Z,99079.34
2023-08-28T05:06:51.911Z,99084.59
2023-08-28T05:09:18.519Z,99074.53
2023-08-28T05:11:45.098Z,99068.56
2023-08-28T05:14:11.729Z,99075.31
2023-08-28T05:16:38.276Z,99067.50
2023-08-28T05:19:04.893Z,99064.59
2023-08-28T05:21:31.686Z,99062.34
2023-08-28T05:23:58.246Z,99071.41
2023-08-28T05:26:24.787Z,99076.81
2023-08-28T05:28:51.622Z,99056.16
2023-08-28T05:31:18.263Z,99057.53
2023-08-28T05:33:44.825Z,99064.38
2023-08-28T05:36:11.462Z,99065.59
2023-08-28T05:38:38.041Z,99067.75
2023-08-28T05:41:04.675Z,99070.09
2023-08-28T05:43:31.372Z,99069.47
2023-08-28T05:45:57.914Z,99062.44
2023-08-28T05:48:24.493Z,99069.78
2023-08-28T05:50:51.626Z,99079.53
2023-08-28T05:53:18.438Z,99074.56
2023-08-28T05:55:46.426Z,99083.97
2023-08-28T05:58:13.171Z,99090.31
2023-08-28T06:00:39.762Z,99098.72
2023-08-28T06:03:08.237Z,99091.56
2023-08-28T06:05:35.336Z,99093.28
2023-08-28T06:08:02.042Z,99099.28
2023-08-28T06:10:32.728Z,99105.56
2023-08-28T06:12:59.273Z,99105.13
2023-08-28T06:15:26.486Z,99101.28
2023-08-28T06:17:55.308Z,99113.56
2023-08-28T06:20:23.613Z,99121.63
2023-08-28T06:22:50.221Z,99117.66
2023-08-28T06:25:17.286Z,99118.66
2023-08-28T06:27:44.727Z,99128.31
2023-08-28T06:30:11.708Z,99118.94
2023-08-28T06:32:38.402Z,99113.88
2023-08-28T06:35:05.444Z,99125.97
2023-08-28T06:37:32.049Z,99121.34
2023-08-28T06:39:58.640Z,99105.41
2023-08-28T06:42:25.419Z,99116.38
2023-08-28T06:44:51.981Z,99122.44
2023-08-28T06:47:18.716Z,99114.31
2023-08-28T06:49:45.430Z,99121.56
2023-08-28T06:52:11.982Z,99130.97
2023-08-28T06:57:08.079Z,99158.09
2023-08-28T06:59:34.653Z,99170.47
2023-08-28T07:02:01.226Z,99157.28
2023-08-28T07:04:28.053Z,99155.44
2023-08-28T07:06:54.647Z,99154.66
2023-08-28T07:09:21.387Z,99163.78
2023-08-28T07:11:48.219Z,99160.16
2023-08-28T07:14:14.840Z,99165.75
2023-08-28T07:16:41.449Z,99167.44
2023-08-28T07:19:08.735Z,99170.28
2023-08-28T07:21:35.310Z,99165.78
2023-08-28T07:24:01.862Z,99177.22
2023-08-28T07:26:28.586Z,99173.50
2023-08-28T07:28:55.143Z,99159.59
2023-08-28T07:31:22.139Z,99184.16
2023-08-28T07:33:49.945Z,99169.09
2023-08-28T07:36:26.332Z,99172.13
2023-08-28T07:38:52.978Z,99166.81
2023-08-28T07:41:21.316Z,99163.00
2023-08-28T07:43:48.186Z,99173.56
2023-08-28T07:46:15.087Z,99167.41
2023-08-28T07:48:42.426Z,99166.75
2023-08-28T07:51:10.689Z,99167.66
2023-08-28T07:53:37.608Z,99164.25
2023-08-28T07:56:04.425Z,99165.72
2023-08-28T07:58:31.046Z,99161.38
2023-08-28T08:01:03.874Z,99155.22
2023-08-28T08:03:30.454Z,99160.28
2023-08-28T08:05:57.214Z,99152.50
2023-08-28T08:08:23.991Z,99166.81
2023-08-28T08:10:50.776Z,99156.63
2023-08-28T08:13:18.540Z,99148.19
2023-08-28T08:15:45.191Z,99150.38
2023-08-28T08:18:11.838Z,99154.75
2023-08-28T08:20:38.444Z,99156.09
2023-08-28T08:23:05.782Z,99153.59
2023-08-28T08:25:34.498Z,99156.19
2023-08-28T08:28:03.867Z,99142.66
2023-08-28T08:30:31.009Z,99136.31
2023-08-28T08:32:57.714Z,99140.63
2023-08-28T08:35:24.575Z,99136.81
2023-08-28T08:37:54.019Z,99135.56
2023-08-28T08:40:25.977Z,99124.53
2023-08-28T08:42:53.889Z,99131.41
2023-08-28T08:45:23.381Z,99133.88
2023-08-28T08:47:54.655Z,99129.03
2023-08-28T08:50:23.851Z,99137.47
2023-08-28T08:52:50.537Z,99153.31
2023-08-28T08:55:42.743Z,99143.38
2023-08-28T08:58:14.880Z,99140.09
2023-08-28T09:00:44.746Z,99148.28
2023-08-28T09:03:12.319Z,99144.75
2023-08-28T09:05:39.683Z,99141.84
2023-08-28T09:08:07.396Z,99144.53
2023-08-28T09:10:34.589Z,99149.25
2023-08-28T09:13:02.132Z,99141.56
2023-08-28T09:15:29.160Z,99152.69
2023-08-28T09:17:55.847Z,99150.88
2023-08-28T09:20:22.988Z,99151.69
2023-08-28T09:22:54.398Z,99159.53
2023-08-28T09:25:23.508Z,99156.13
2023-08-28T09:27:52.754Z,99161.63
2023-08-28T09:30:39.684Z,99167.22
2023-08-28T09:33:08.755Z,99166.00
2023-08-28T09:35:41.120Z,99169.81
2023-08-28T09:38:08.828Z,99168.34
2023-08-28T09:40:41.507Z,99166.69
2023-08-28T09:43:17.920Z,99169.50
2023-08-28T09:45:46.451Z,99166.25
2023-08-28T09:48:14.555Z,99159.63
2023-08-28T09:50:42.665Z,99163.34
2023-08-28T09:53:09.737Z,99157.81
2023-08-28T09:55:46.118Z,99162.28
2023-08-28T09:58:12.947Z,99161.75
2023-08-28T10:00:40.884Z,99165.25
2023-08-28T10:03:12.491Z,99164.97
2023-08-28T10:05:46.618Z,99154.13
2023-08-28T10:08:15.170Z,99152.66
2023-08-28T10:10:47.003Z,99154.22
2023-08-28T10:13:16.781Z,99161.53
2023-08-28T10:16:05.550Z,99161.19
2023-08-28T10:18:46.138Z,99158.56
2023-08-28T10:21:12.841Z,99155.44
2023-08-28T10:23:40.323Z,99163.88
2023-08-28T10:26:07.799Z,99166.34
2023-08-28T10:28:35.217Z,99152.59
2023-08-28T10:31:02.450Z,99149.03
2023-08-28T10:33:31.974Z,99151.22
2023-08-28T10:36:01.250Z,99153.00
2023-08-28T10:38:28.461Z,99140.09
2023-08-28T10:40:57.102Z,99140.44
2023-08-28T10:43:26.787Z,99138.03
2023-08-28T10:45:58.615Z,99162.72
2023-08-28T10:48:25.470Z,99149.53
2023-08-28T10:50:57.837Z,99146.06
2023-08-28T10:53:24.609Z,99142.09
2023-08-28T10:56:00.276Z,99134.88
2023-08-28T10:58:37.702Z,99139.09
2023-08-28T11:01:15.706Z,99129.03
2023-08-28T11:03:59.556Z,99131.38
2023-08-28T11:06:46.083Z,99133.41
2023-08-28T11:09:30.875Z,99123.56
2023-08-28T11:12:01.090Z,99131.50
2023-08-28T11:14:43.412Z,99124.84
2023-08-28T11:17:21.358Z,99110.34
2023-08-28T11:19:57.553Z,99135.28
2023-08-28T11:22:34.764Z,99104.72
2023-08-28T11:25:06.218Z,99109.53
2023-08-28T11:27:38.451Z,99120.41
2023-08-28T11:30:07.144Z,99116.78
2023-08-28T11:32:39.880Z,99130.63
2023-08-28T11:35:11.343Z,99114.09
2023-08-28T11:37:42.941Z,99118.47
2023-08-28T11:40:10.874Z,99117.31
2023-08-28T11:42:38.915Z,99122.53
2023-08-28T11:45:08.946Z,99126.25
2023-08-28T11:47:35.945Z,99123.25
2023-08-28T11:50:07.165Z,99119.19
2023-08-28T11:52:34.103Z,99120.94
2023-08-28T11:55:05.580Z,99109.41
2023-08-28T11:57:34.223Z,99107.13
2023-08-28T12:00:02.561Z,99105.63
2023-08-28T12:02:30.442Z,99105.75
2023-08-28T12:04:57.101Z,99110.09
2023-08-28T12:07:27.913Z,99119.06
2023-08-28T12:09:56.485Z,99112.94
2023-08-28T12:12:24.188Z,99097.16
2023-08-28T12:14:51.576Z,99118.69
2023-08-28T12:17:19.502Z,99120.63
2023-08-28T12:19:46.187Z,99123.19
2023-08-28T12:22:13.178Z,99116.03
2023-08-28T12:24:44.262Z,99123.00
2023-08-28T12:27:11.725Z,99113.28
2023-08-28T12:29:39.770Z,99107.69
2023-08-28T12:32:08.927Z,99109.78
2023-08-28T12:34:35.776Z,99111.81
2023-08-28T12:37:10.867Z,99116.41
2023-08-28T12:39:44.400Z,99113.44
2023-08-28T12:42:13.013Z,99113.41
2023-08-28T12:44:41.507Z,99106.44
2023-08-28T12:47:09.671Z,99108.78
2023-08-28T12:49:36.476Z,99114.28
2023-08-28T12:52:03.092Z,99124.13
2023-08-28T12:54:29.629Z,99111.16
2023-08-28T12:56:56.269Z,99109.19
2023-08-28T12:59:23.443Z,99128.06
2023-08-28T13:01:52.778Z,99107.94
2023-08-28T13:04:22.400Z,99101.91
2023-08-28T13:06:50.185Z,99100.84
2023-08-28T13:09:16.895Z,99100.38
2023-08-28T13:11:43.521Z,99122.22
2023-08-28T13:14:10.528Z,99105.06
2023-08-28T13:16:37.465Z,99096.53
2023-08-28T13:19:04.770Z,99095.44
2023-08-28T13:21:34.060Z,99098.69
2023-08-28T13:24:00.899Z,99091.06
2023-08-28T13:26:27.602Z,99098.97
2023-08-28T13:28:56.658Z,99103.28
2023-08-28T13:31:23.269Z,99097.25
2023-08-28T13:33:50.200Z,99100.59
2023-08-28T13:36:17.484Z,99100.72
2023-08-28T13:38:44.122Z,99097.44
2023-08-28T13:41:10.763Z,99098.03
2023-08-28T13:43:37.294Z,99102.25
2023-08-28T13:46:04.323Z,99094.56
2023-08-28T13:48:31.298Z,99085.13
2023-08-28T13:50:57.981Z,99089.31
2023-08-28T13:53:25.845Z,99093.31
2023-08-28T13:55:56.440Z,99093.09
2023-08-28T13:58:23.588Z,99100.72
2023-08-28T14:01:00.392Z,99086.97
2023-08-28T14:03:27.825Z,99101.19
2023-08-28T14:05:57.486Z,99106.09
2023-08-28T14:08:24.582Z,99098.38
2023-08-28T14:10:51.306Z,99097.84
2023-08-28T14:13:17.852Z,99095.75
2023-08-28T14:15:48.122Z,99106.69
2023-08-28T14:18:15.082Z,99107.09
2023-08-28T14:20:42.042Z,99095.56
2023-08-28T14:23:08.631Z,99101.56
2023-08-28T14:25:35.244Z,99090.06
2023-08-28T14:28:16.048Z,99098.03
2023-08-28T14:30:49.114Z,99090.97
2023-08-28T14:33:15.801Z,99101.16
2023-08-28T14:35:46.274Z,99124.34
2023-08-28T14:38:14.019Z,99116.72
2023-08-28T14:40:47.225Z,99106.41
2023-08-28T14:43:14.634Z,99117.94
2023-08-28T14:45:41.911Z,99121.88
2023-08-28T14:48:08.952Z,99114.47
2023-08-28T14:50:35.915Z,99124.72
2023-08-28T14:53:03.013Z,99118.09
2023-08-28T14:55:29.866Z,99131.19
2023-08-28T14:57:56.578Z,99118.81
2023-08-28T15:00:23.821Z,99118.09
2023-08-28T15:02:50.723Z,99129.38
2023-08-28T15:05:18.038Z,99126.16
2023-08-28T15:07:44.843Z,99140.47
2023-08-28T15:10:11.395Z,99146.91
2023-08-28T15:12:38.069Z,99159.28
2023-08-28T15:15:05.704Z,99143.41
2023-08-28T15:17:32.458Z,99145.41
2023-08-28T15:19:59.538Z,99151.50
2023-08-28T15:22:27.203Z,99143.63
2023-08-28T15:24:55.244Z,99149.84
2023-08-28T15:27:21.892Z,99151.94
2023-08-28T15:29:49.552Z,99142.75
2023-08-28T15:32:16.140Z,99144.25
2023-08-28T15:34:42.756Z,99145.22
2023-08-28T15:37:09.374Z,99159.69
2023-08-28T15:39:35.931Z,99163.25
2023-08-28T15:42:04.054Z,99166.25
2023-08-28T15:44:32.305Z,99155.66
2023-08-28T15:46:58.864Z,99158.09
2023-08-28T15:49:25.493Z,99164.22
2023-08-28T15:51:52.041Z,99158.78
2023-08-28T15:54:18.585Z,99156.25
2023-08-28T15:56:45.267Z,99144.94
2023-08-28T15:59:14.685Z,99146.81
2023-08-28T16:01:42.686Z,99139.47
2023-08-28T16:04:09.339Z,99138.22
2023-08-28T16:06:35.925Z,99134.78
2023-08-28T16:09:04.167Z,99133.81
2023-08-28T16:11:34.506Z,99140.53
2023-08-28T16:14:01.829Z,99155.03
2023-08-28T16:16:28.830Z,99145.22
2023-08-28T16:18:55.772Z,99139.75
2023-08-28T16:21:22.508Z,99127.25
2023-08-28T16:23:49.100Z,99138.19
2023-08-28T16:26:15.741Z,99122.53
2023-08-28T16:28:42.297Z,99136.50
2023-08-28T16:31:11.860Z,99143.09
2023-08-28T16:33:38.608Z,99137.34
2023-08-28T16:36:05.603Z,99136.16
2023-08-28T16:38:32.168Z,99139.03
2023-08-28T16:40:58.860Z,99144.09
2023-08-28T16:43:25.446Z,99140.91
2023-08-28T16:45:52.314Z,99143.84
2023-08-28T16:48:19.013Z,99143.59
2023-08-28T16:50:46.444Z,99135.50
2023-08-28T16:53:14.181Z,99144.69
2023-08-28T16:55:42.594Z,99133.31
2023-08-28T16:58:09.938Z,99142.41
2023-08-28T17:00:37.803Z,99138.50
2023-08-28T17:03:05.153Z,99140.31
2023-08-28T17:05:32.872Z,99148.44
2023-08-28T17:08:00.245Z,99144.00
2023-08-28T17:10:27.635Z,99147.44
2023-08-28T17:12:54.227Z,99142.63
2023-08-28T17:15:21.785Z,99144.78
2023-08-28T17:17:48.543Z,99145.53
2023-08-28T17:20:15.129Z,99142.19
2023-08-28T17:22:42.024Z,99147.13
2023-08-28T17:25:09.192Z,99136.13
2023-08-28T17:27:35.731Z,99144.16
2023-08-28T17:30:04.433Z,99150.75
2023-08-28T17:32:31.279Z,99153.09
2023-08-28T17:34:57.872Z,99167.09
2023-08-28T17:37:24.415Z,99158.25
2023-08-28T17:39:51.089Z,99164.00
2023-08-28T17:42:17.687Z,99157.22
2023-08-28T17:44:44.258Z,99150.69
2023-08-28T17:47:13.047Z,99163.50
2023-08-28T17:49:39.585Z,99163.72
2023-08-28T17:52:06.255Z,99143.66
2023-08-28T17:54:32.961Z,99156.19
2023-08-28T17:56:59.550Z,99161.59
2023-08-28T17:59:26.090Z,99161.16
2023-08-28T18:01:53.991Z,99161.19
2023-08-28T18:04:20.620Z,99166.44
2023-08-28T18:06:47.672Z,99175.25
2023-08-28T18:09:14.414Z,99172.09
2023-08-28T18:11:46.869Z,99181.34
2023-08-28T18:14:14.523Z,99178.50
2023-08-28T18:16:44.028Z,99183.56
2023-08-28T18:19:10.561Z,99180.75
2023-08-28T18:21:39.655Z,99189.56
2023-08-28T18:24:08.358Z,99193.63
2023-08-28T18:26:35.090Z,99199.34
2023-08-28T18:29:01.800Z,99202.44
2023-08-28T18:31:28.526Z,99203.53
2023-08-28T18:33:58.056Z,99202.75
2023-08-28T18:36:26.621Z,99202.16
2023-08-28T18:38:53.534Z,99206.13
2023-08-28T18:41:20.404Z,99206.44
2023-08-28T18:43:47.056Z,99202.00
2023-08-28T18:46:13.843Z,99206.03
2023-08-28T18:48:40.462Z,99212.00
2023-08-28T18:51:08.249Z,99215.97
2023-08-28T18:53:35.133Z,99206.38
2023-08-28T18:56:04.916Z,99211.63
2023-08-28T18:58:31.504Z,99206.69
2023-08-28T19:01:01.167Z,99209.91
2023-08-28T19:03:27.850Z,99208.22
2023-08-28T19:05:54.707Z,99206.78
2023-08-28T19:08:21.419Z,99204.28
2023-08-28T19:10:48.119Z,99207.91
2023-08-28T19:13:15.229Z,99211.41
2023-08-28T19:15:42.109Z,99202.97
2023-08-28T19:18:09.240Z,99220.19
2023-08-28T19:20:45.453Z,99220.91
2023-08-28T19:23:17.342Z,99219.97
2023-08-28T19:25:44.041Z,99222.69
2023-08-28T19:28:10.651Z,99228.47
2023-08-28T19:30:37.384Z,99223.25
2023-08-28T19:33:04.300Z,99225.31
2023-08-28T19:35:31.012Z,99228.72
2023-08-28T19:37:57.667Z,99227.72
2023-08-28T19:40:24.298Z,99233.63
2023-08-28T19:42:50.976Z,99242.94
2023-08-28T19:45:17.597Z,99239.81
2023-08-28T19:47:44.218Z,99241.81
2023-08-28T19:50:10.871Z,99242.06
2023-08-28T19:52:37.571Z,99248.41
2023-08-28T19:55:05.908Z,99251.06
2023-08-28T19:57:33.126Z,99247.22
2023-08-28T19:59:59.936Z,99249.75
2023-08-28T20:02:26.674Z,99257.31
2023-08-28T20:04:53.308Z,99253.25
2023-08-28T20:07:20.009Z,99251.91
2023-08-28T20:09:46.568Z,99254.13
2023-08-28T20:12:16.323Z,99254.03
2023-08-28T20:14:44.996Z,99252.66
2023-08-28T20:17:11.982Z,99243.94
2023-08-28T20:19:38.735Z,99249.31
2023-08-28T20:22:05.939Z,99255.56
2023-08-28T20:24:37.000Z,99256.44
2023-08-28T20:27:05.754Z,99260.63
2023-08-28T20:29:35.002Z,99251.22
2023-08-28T20:32:01.602Z,99256.25
2023-08-28T20:34:28.151Z,99248.06
2023-08-28T20:36:55.043Z,99245.03
2023-08-28T20:39:21.784Z,99251.44
2023-08-28T20:41:48.350Z,99259.69
2023-08-28T20:44:15.078Z,99259.25
2023-08-28T20:46:41.726Z,99263.66
2023-08-28T20:49:08.435Z,99268.22
2023-08-28T20:51:37.156Z,99265.91
2023-08-28T20:54:04.358Z,99276.16
2023-08-28T20:56:31.304Z,99272.19
2023-08-28T20:58:58.110Z,99274.69
2023-08-28T21:01:24.913Z,99268.47
2023-08-28T21:03:51.579Z,99271.53
2023-08-28T21:06:18.366Z,99273.53
2023-08-28T21:08:46.434Z,99268.16
2023-08-28T21:11:13.442Z,99261.09
2023-08-28T21:13:40.628Z,99265.34
2023-08-28T21:16:07.248Z,99264.53
2023-08-28T21:18:33.874Z,99266.91
2023-08-28T21:21:02.528Z,99273.59
2023-08-28T21:23:30.088Z,99271.63
2023-08-28T21:26:00.764Z,99263.44
2023-08-28T21:28:28.104Z,99270.88
2023-08-28T21:31:01.827Z,99269.44
2023-08-28T21:33:31.130Z,99257.75
2023-08-28T21:36:04.700Z,99258.41
2023-08-28T21:38:35.598Z,99263.59
2023-08-28T21:41:05.048Z,99258.53
2023-08-28T21:43:32.861Z,99263.91
2023-08-28T21:46:04.653Z,99262.25
2023-08-28T21:48:34.683Z,99260.72
2023-08-28T21:51:02.311Z,99259.09
2023-08-28T21:53:29.151Z,99259.97
2023-08-28T21:55:55.745Z,99253.53
2023-08-28T21:58:22.727Z,99250.22
2023-08-28T22:00:49.524Z,99262.19
2023-08-28T22:03:16.348Z,99249.50
2023-08-28T22:05:46.535Z,99259.63
2023-08-28T22:08:14.170Z,99247.59
2023-08-28T22:10:42.725Z,99243.78
2023-08-28T22:13:09.973Z,99241.78
2023-08-28T22:15:38.888Z,99236.47
2023-08-28T22:18:06.153Z,99234.31
2023-08-28T22:20:33.621Z,99239.38
2023-08-28T22:23:00.627Z,99236.81
2023-08-28T22:25:27.454Z,99239.69
2023-08-28T22:27:54.323Z,99241.72
2023-08-28T22:30:21.050Z,99244.50
2023-08-28T22:32:47.733Z,99255.66
2023-08-28T22:35:14.409Z,99250.00
2023-08-28T22:37:41.163Z,99248.91
2023-08-28T22:40:08.999Z,99257.75
2023-08-28T22:42:35.755Z,99250.00
2023-08-28T22:45:02.906Z,99247.84
2023-08-28T22:47:33.075Z,99255.78
2023-08-28T22:49:59.836Z,99257.16
2023-08-28T22:52:26.442Z,99247.84
2023-08-28T22:54:53.098Z,99245.03
2023-08-28T22:57:19.834Z,99244.41
2023-08-28T22:59:46.393Z,99239.25
2023-08-28T23:02:13.129Z,99243.88
2023-08-28T23:04:40.206Z,99234.22
2023-08-28T23:07:07.202Z,99239.00
2023-08-28T23:09:33.765Z,99242.81
2023-08-28T23:12:00.633Z,99234.41
2023-08-28T23:14:28.695Z,99230.31
2023-08-28T23:16:55.277Z,99237.63
2023-08-28T23:19:22.297Z,99222.25
2023-08-28T23:21:48.923Z,99231.59
2023-08-28T23:24:15.457Z,99227.41
2023-08-28T23:26:42.974Z,99228.50
2023-08-28T23:29:09.617Z,99223.16
2023-08-28T23:31:36.568Z,99234.16
2023-08-28T23:34:04.419Z,99227.47
2023-08-28T23:36:31.189Z,99239.00
2023-08-28T23:38:57.801Z,99234.28
2023-08-28T23:41:24.513Z,99229.75
2023-08-28T23:43:51.253Z,99239.28
2023-08-28T23:46:17.979Z,99226.31
2023-08-28T23:48:44.650Z,99230.22
2023-08-28T23:51:11.351Z,99225.13
2023-08-28T23:53:38.044Z,99230.84
2023-08-28T23:56:04.702Z,99226.53
2023-08-28T23:58:32.577Z,99218.72
